Kintore, United Kingdom
Current Conditions -  °F | °C
As of 5:20 PM on Thursday 18 Dec 2014 (Local Time) from EGPD Reporting Station
Scattered Clouds Scattered Clouds  
Wind Chill: 38°   Ceiling: Unl
Heat Index: 41°   Visibility: 6mi
Dew Point: 36°   Wind: 5mph
Humidity: 81%   Direction: 230°SW
Pressure: 29.29"   Gusts: NA
Location:  57.24°N, 2.35°W
Report Text: EGPD 181720Z 23004KT 9999 SCT034 SCT046 05/02 Q0992 NOSIG
Loading
Personal Weather Stations






























Interactive Weather Map New forecast layout! Learn more

10-Day Weather Forecast

Advertisements
Track Severe Weather on mobile